Lower Matecumbe Key, Florida
Current Conditions -  °F | °C
As of 4:53 PM on Monday 26 Jan 2015 (Local Time) from KMTH Reporting Station
Clear Clear  
Wind Chill: 71°   Ceiling: Unl
Heat Index: 71°   Visibility: 10mi
Dew Point: 58°   Wind: 17mph
Humidity: 63%   Direction: 300°WNW
Pressure: 29.94"   Gusts: 26mph
Location:  24.8649°N, 80.7192°W
Report Text: KMTH 262153Z AUTO 30015G23KT 10SM CLR 22/14 A2994 RMK AO2 SLP139 T02170144
Loading
Personal Weather Stations






























Interactive Weather Map New forecast layout! Learn more

10-Day Weather Forecast

Advertisements
Track Severe Weather on mobile